createdAt,value
2022-12-05T00:00:41.397Z,55.00
2022-12-05T00:05:43.486Z,56.60
2022-12-05T00:10:45.643Z,57.60
2022-12-05T00:15:47.718Z,54.17
2022-12-05T00:20:49.796Z,63.97
2022-12-05T00:25:51.769Z,53.65
2022-12-05T00:30:53.926Z,52.22
2022-12-05T00:35:56.007Z,58.63
2022-12-05T00:41:04.229Z,57.75
2022-12-05T00:46:12.485Z,59.83
2022-12-05T00:51:17.668Z,53.65
2022-12-05T00:56:22.402Z,54.13
2022-12-05T01:01:27.630Z,51.67
2022-12-05T01:06:29.863Z,51.42
2022-12-05T01:11:35.037Z,56.17
2022-12-05T01:16:41.902Z,61.08
2022-12-05T01:21:44.423Z,57.65
2022-12-05T01:26:48.183Z,57.08
2022-12-05T01:31:50.963Z,49.92
2022-12-05T01:36:53.170Z,55.85
2022-12-05T01:41:55.273Z,58.00
2022-12-05T01:46:57.638Z,56.95
2022-12-05T01:52:07.644Z,55.58
2022-12-05T01:57:11.866Z,60.97
2022-12-05T02:02:14.216Z,52.17
2022-12-05T02:07:16.414Z,56.22
2022-12-05T02:12:20.285Z,55.55
2022-12-05T02:17:49.753Z,59.08
2022-12-05T02:23:11.108Z,56.67
2022-12-05T02:28:37.856Z,55.35
2022-12-05T02:33:47.335Z,61.17
2022-12-05T02:39:10.518Z,70.07
2022-12-05T02:44:15.583Z,59.67
2022-12-05T02:49:22.173Z,63.90
2022-12-05T02:54:31.184Z,60.53
2022-12-05T02:59:33.356Z,63.33
2022-12-05T03:04:35.574Z,62.50
2022-12-05T03:09:43.781Z,63.45
2022-12-05T03:15:02.798Z,62.05
2022-12-05T03:20:08.107Z,63.58
2022-12-05T03:25:11.154Z,56.30
2022-12-05T03:30:19.656Z,64.53
2022-12-05T03:36:09.363Z,62.75
2022-12-05T03:42:00.640Z,60.05
2022-12-05T03:47:12.439Z,62.92
2022-12-05T03:52:20.431Z,65.35
2022-12-05T03:57:28.383Z,64.25
2022-12-05T04:02:45.277Z,56.40
2022-12-05T04:07:54.164Z,63.50
2022-12-05T04:13:17.611Z,55.95
2022-12-05T04:18:23.981Z,61.10
2022-12-05T04:23:27.186Z,60.17
2022-12-05T04:28:42.923Z,59.85
2022-12-05T04:33:50.583Z,61.35
2022-12-05T04:38:57.806Z,60.72
2022-12-05T04:44:03.882Z,58.13
2022-12-05T04:49:09.302Z,53.50
2022-12-05T04:54:18.068Z,62.42
2022-12-05T04:59:20.179Z,62.05
2022-12-05T05:04:28.325Z,58.22
2022-12-05T05:09:30.514Z,62.72
2022-12-05T05:14:32.683Z,58.20
2022-12-05T05:19:34.717Z,57.72
2022-12-05T05:24:36.883Z,61.70
2022-12-05T05:29:38.908Z,54.22
2022-12-05T05:34:41.254Z,50.63
2022-12-05T05:39:43.300Z,51.60
2022-12-05T05:44:45.333Z,58.03
2022-12-05T05:49:47.430Z,55.95
2022-12-05T05:54:49.612Z,53.53
2022-12-05T05:59:52.117Z,50.10
2022-12-05T06:04:54.157Z,56.45
2022-12-05T06:09:56.601Z,59.40
2022-12-05T06:14:59.028Z,57.38
2022-12-05T06:20:01.294Z,54.67
2022-12-05T06:25:03.791Z,54.40
2022-12-05T06:30:06.547Z,55.50
2022-12-05T06:35:15.425Z,52.75
2022-12-05T06:40:17.610Z,54.40
2022-12-05T06:45:20.478Z,49.03
2022-12-05T06:50:22.475Z,49.83
2022-12-05T06:55:24.565Z,52.13
2022-12-05T07:00:45.292Z,50.45
2022-12-05T07:05:47.359Z,49.03
2022-12-05T07:10:53.146Z,46.42
2022-12-05T07:15:55.233Z,47.25
2022-12-05T07:21:11.709Z,48.05
2022-12-05T07:26:17.573Z,51.05
2022-12-05T07:31:22.779Z,47.78
2022-12-05T07:36:25.027Z,51.47
2022-12-05T07:41:29.610Z,51.38
2022-12-05T07:46:31.739Z,46.47
2022-12-05T07:51:34.078Z,45.28
2022-12-05T07:56:36.034Z,48.42
2022-12-05T08:01:38.310Z,42.92
2022-12-05T08:06:40.341Z,43.35
2022-12-05T08:11:42.338Z,44.88
2022-12-05T08:16:44.521Z,47.67
2022-12-05T08:21:46.742Z,46.88
2022-12-05T08:26:48.713Z,45.90
2022-12-05T08:31:51.771Z,43.05
2022-12-05T08:36:53.898Z,45.67
2022-12-05T08:41:56.045Z,47.35
2022-12-05T08:46:58.047Z,44.38
2022-12-05T08:52:00.131Z,44.75
2022-12-05T08:57:02.179Z,43.28
2022-12-05T09:02:04.354Z,44.92
2022-12-05T09:07:08.243Z,45.22
2022-12-05T09:12:10.288Z,44.35
2022-12-05T09:17:12.365Z,41.88
2022-12-05T09:22:14.491Z,49.45
2022-12-05T09:27:16.581Z,42.63
2022-12-05T09:32:19.695Z,43.40
2022-12-05T09:37:38.664Z,45.45
2022-12-05T09:42:54.048Z,45.80
2022-12-05T09:48:00.610Z,44.13
2022-12-05T09:53:09.273Z,44.92
2022-12-05T09:58:19.062Z,41.67
2022-12-05T10:03:41.653Z,44.47
2022-12-05T10:09:01.345Z,44.17
2022-12-05T10:14:35.245Z,38.55
2022-12-05T10:19:46.898Z,43.60
2022-12-05T10:24:54.230Z,41.75
2022-12-05T10:30:02.903Z,40.00
2022-12-05T10:35:34.826Z,43.35
2022-12-05T10:40:51.435Z,35.67
2022-12-05T10:45:53.812Z,38.63
2022-12-05T10:50:57.786Z,31.08
2022-12-05T10:56:29.176Z,31.15
2022-12-05T11:01:22.854Z,32.53
2022-12-05T11:06:31.030Z,30.70
2022-12-05T11:11:34.340Z,34.53
2022-12-05T11:16:38.734Z,29.70
2022-12-05T11:21:44.053Z,30.13
2022-12-05T11:26:46.103Z,27.33
2022-12-05T11:31:52.149Z,28.95
2022-12-05T11:36:58.251Z,26.65
2022-12-05T11:42:12.392Z,29.17
2022-12-05T11:47:38.257Z,25.98
2022-12-05T11:53:12.689Z,25.70
2022-12-05T11:58:45.402Z,29.60
2022-12-05T12:03:59.635Z,25.98
2022-12-05T12:09:33.915Z,23.80
2022-12-05T12:15:01.217Z,24.33
2022-12-05T12:20:18.499Z,21.05
2022-12-05T12:25:25.758Z,22.90
2022-12-05T12:30:44.798Z,20.52
2022-12-05T12:36:02.499Z,19.67
2022-12-05T12:41:42.004Z,19.80
2022-12-05T12:46:54.198Z,20.52
2022-12-05T12:52:02.253Z,19.58
2022-12-05T12:57:20.640Z,22.25
2022-12-05T13:02:51.192Z,21.25
2022-12-05T13:08:11.581Z,20.77
2022-12-05T13:13:18.092Z,21.70
2022-12-05T13:18:22.508Z,21.40
2022-12-05T13:23:28.607Z,21.17
2022-12-05T13:28:42.237Z,21.88
2022-12-05T13:33:50.214Z,21.38
2022-12-05T13:39:20.684Z,20.25
2022-12-05T13:44:33.223Z,22.58
2022-12-05T13:49:51.229Z,23.13
2022-12-05T13:55:24.148Z,21.52
2022-12-05T14:00:39.268Z,24.88
2022-12-05T14:05:42.470Z,28.27
2022-12-05T14:10:44.451Z,29.17
2022-12-05T14:15:48.793Z,22.42
2022-12-05T14:21:41.571Z,23.23
2022-12-05T14:27:00.280Z,20.38
2022-12-05T14:32:23.797Z,22.77
2022-12-05T14:37:31.121Z,26.83
2022-12-05T14:42:40.743Z,25.67
2022-12-05T14:47:51.538Z,20.23
2022-12-05T14:58:36.110Z,19.65
2022-12-05T15:03:42.052Z,20.70
2022-12-05T15:08:50.348Z,20.40
2022-12-05T15:13:53.068Z,20.42
2022-12-05T15:19:00.013Z,21.75
2022-12-05T15:24:05.619Z,18.58
2022-12-05T15:29:15.016Z,17.83
2022-12-05T15:34:29.230Z,14.57
2022-12-05T15:39:53.543Z,14.15
2022-12-05T15:45:14.081Z,13.88
2022-12-05T15:50:22.218Z,13.33
2022-12-05T15:55:33.543Z,13.05
2022-12-05T16:00:40.198Z,11.80
2022-12-05T16:05:50.864Z,10.68
2022-12-05T16:10:53.094Z,9.75
2022-12-05T16:15:55.314Z,11.60
2022-12-05T16:20:57.738Z,11.32
2022-12-05T16:26:20.555Z,14.68
2022-12-05T16:31:22.969Z,13.43
2022-12-05T16:36:25.045Z,13.55
2022-12-05T16:41:38.608Z,10.55
2022-12-05T16:46:42.194Z,12.23
2022-12-05T16:51:52.746Z,9.68
2022-12-05T16:56:55.034Z,10.40
2022-12-05T17:01:57.229Z,10.57
2022-12-05T17:06:59.330Z,8.75
2022-12-05T17:12:05.116Z,9.57
2022-12-05T17:17:14.214Z,10.38
2022-12-05T17:22:16.846Z,12.40
2022-12-05T17:27:20.547Z,10.10
2022-12-05T17:32:22.547Z,9.95
2022-12-05T17:37:24.612Z,12.55
2022-12-05T17:42:27.597Z,12.88
2022-12-05T17:47:29.837Z,11.70
2022-12-05T17:52:33.626Z,12.15
2022-12-05T17:57:35.676Z,10.55
2022-12-05T18:02:38.302Z,14.00
2022-12-05T18:07:41.940Z,12.15
2022-12-05T18:12:44.042Z,10.90
2022-12-05T18:17:46.090Z,11.02
2022-12-05T18:22:48.712Z,12.80
2022-12-05T18:27:50.874Z,13.70
2022-12-05T18:32:52.835Z,11.77
2022-12-05T18:37:55.790Z,13.23
2022-12-05T18:42:57.787Z,10.95
2022-12-05T18:48:16.375Z,11.25
2022-12-05T18:53:22.339Z,11.95
2022-12-05T18:58:24.430Z,12.35
2022-12-05T19:03:26.733Z,11.73
2022-12-05T19:08:28.771Z,11.43
2022-12-05T19:13:30.858Z,16.25
2022-12-05T19:18:32.822Z,18.67
2022-12-05T19:23:35.267Z,13.00
2022-12-05T19:28:37.792Z,20.85
2022-12-05T19:33:43.218Z,15.75
2022-12-05T19:38:47.683Z,17.00
2022-12-05T19:43:50.349Z,15.88
2022-12-05T19:48:56.143Z,17.58
2022-12-05T19:54:00.123Z,15.40
2022-12-05T19:59:03.265Z,15.18
2022-12-05T20:04:08.078Z,17.27
2022-12-05T20:09:12.287Z,17.95
2022-12-05T20:14:14.718Z,16.73
2022-12-05T20:19:16.851Z,17.33
2022-12-05T20:24:19.266Z,17.75
2022-12-05T20:29:21.430Z,16.92
2022-12-05T20:34:23.434Z,16.65
2022-12-05T20:39:27.316Z,16.90
2022-12-05T20:44:29.369Z,13.75
2022-12-05T20:49:31.510Z,14.65
2022-12-05T20:54:33.575Z,13.23
2022-12-05T20:59:35.693Z,12.35
2022-12-05T21:04:40.770Z,14.88
2022-12-05T21:09:42.780Z,13.50
2022-12-05T21:14:44.980Z,14.35
2022-12-05T21:19:47.122Z,12.75
2022-12-05T21:24:49.104Z,12.50
2022-12-05T21:29:51.066Z,13.75
2022-12-05T21:34:53.921Z,13.00
2022-12-05T21:39:56.072Z,11.38
2022-12-05T21:44:58.319Z,13.65
2022-12-05T21:50:00.908Z,12.00
2022-12-05T21:55:10.122Z,11.79
2022-12-05T22:00:12.751Z,13.38
2022-12-05T22:05:14.890Z,14.48
2022-12-05T22:10:17.342Z,14.27
2022-12-05T22:15:19.770Z,12.77
2022-12-05T22:20:21.733Z,11.75
2022-12-05T22:25:23.710Z,10.55
2022-12-05T22:30:25.727Z,10.25
2022-12-05T22:35:27.746Z,10.57
2022-12-05T22:40:29.735Z,14.93
2022-12-05T22:45:31.736Z,10.98
2022-12-05T22:50:33.815Z,10.27
2022-12-05T22:55:35.859Z,10.13
2022-12-05T23:00:38.253Z,11.63
2022-12-05T23:05:42.283Z,9.95
2022-12-05T23:10:44.334Z,10.77
2022-12-05T23:15:46.482Z,9.73
2022-12-05T23:20:48.710Z,10.20
2022-12-05T23:25:51.050Z,8.95
2022-12-05T23:30:53.083Z,9.75
2022-12-05T23:35:55.177Z,8.65
2022-12-05T23:41:02.701Z,9.70
2022-12-05T23:46:06.249Z,9.52
2022-12-05T23:51:13.917Z,7.88
2022-12-05T23:56:19.224Z,9.35
